sensor_id;sensor_type;location;lat;lon;timestamp;temperature;humidity
3156;DHT22;1588;50.892;7.082;2023-02-12T00:04:40;5.90;99.90
3156;DHT22;1588;50.892;7.082;2023-02-12T00:09:43;5.90;99.90
3156;DHT22;1588;50.892;7.082;2023-02-12T00:14:46;5.90;99.90
3156;DHT22;1588;50.892;7.082;2023-02-12T00:19:49;5.90;99.90
3156;DHT22;1588;50.892;7.082;2023-02-12T00:24:52;5.90;99.90
3156;DHT22;1588;50.892;7.082;2023-02-12T00:29:54;5.80;99.90
3156;DHT22;1588;50.892;7.082;2023-02-12T00:34:58;5.80;99.90
3156;DHT22;1588;50.892;7.082;2023-02-12T00:40:00;5.90;99.90
3156;DHT22;1588;50.892;7.082;2023-02-12T00:45:03;5.80;99.90
3156;DHT22;1588;50.892;7.082;2023-02-12T00:50:08;5.80;99.90
3156;DHT22;1588;50.892;7.082;2023-02-12T00:55:10;5.80;99.90
3156;DHT22;1588;50.892;7.082;2023-02-12T01:00:14;5.80;99.90
3156;DHT22;1588;50.892;7.082;2023-02-12T01:05:21;5.80;99.90
3156;DHT22;1588;50.892;7.082;2023-02-12T01:10:24;5.80;99.90
3156;DHT22;1588;50.892;7.082;2023-02-12T01:15:29;5.80;99.90
3156;DHT22;1588;50.892;7.082;2023-02-12T01:20:33;5.80;99.90
3156;DHT22;1588;50.892;7.082;2023-02-12T01:25:37;5.80;99.90
3156;DHT22;1588;50.892;7.082;2023-02-12T01:30:39;5.80;99.90
3156;DHT22;1588;50.892;7.082;2023-02-12T01:35:43;5.80;99.90
3156;DHT22;1588;50.892;7.082;2023-02-12T01:40:45;5.80;99.90
3156;DHT22;1588;50.892;7.082;2023-02-12T01:45:52;5.70;99.90
3156;DHT22;1588;50.892;7.082;2023-02-12T01:50:57;5.70;99.90
3156;DHT22;1588;50.892;7.082;2023-02-12T01:56:01;5.80;99.90
3156;DHT22;1588;50.892;7.082;2023-02-12T02:01:07;5.80;99.90
3156;DHT22;1588;50.892;7.082;2023-02-12T02:06:15;5.80;99.90
3156;DHT22;1588;50.892;7.082;2023-02-12T02:11:18;5.80;99.90
3156;DHT22;1588;50.892;7.082;2023-02-12T02:16:46;5.80;99.90
3156;DHT22;1588;50.892;7.082;2023-02-12T02:27:40;5.80;99.90
3156;DHT22;1588;50.892;7.082;2023-02-12T02:32:50;5.80;99.90
3156;DHT22;1588;50.892;7.082;2023-02-12T02:38:04;5.80;99.90
3156;DHT22;1588;50.892;7.082;2023-02-12T02:43:15;5.80;99.90
3156;DHT22;1588;50.892;7.082;2023-02-12T02:48:24;5.70;99.90
3156;DHT22;1588;50.892;7.082;2023-02-12T02:53:31;5.70;99.90
3156;DHT22;1588;50.892;7.082;2023-02-12T02:58:40;5.70;99.90
3156;DHT22;1588;50.892;7.082;2023-02-12T03:03:48;5.70;99.90
3156;DHT22;1588;50.892;7.082;2023-02-12T03:08:54;5.70;99.90
3156;DHT22;1588;50.892;7.082;2023-02-12T03:14:03;5.70;99.90
3156;DHT22;1588;50.892;7.082;2023-02-12T03:19:13;5.70;99.90
3156;DHT22;1588;50.892;7.082;2023-02-12T03:24:21;5.60;99.90
3156;DHT22;1588;50.892;7.082;2023-02-12T03:29:25;5.70;99.90
3156;DHT22;1588;50.892;7.082;2023-02-12T03:34:37;5.60;99.90
3156;DHT22;1588;50.892;7.082;2023-02-12T03:39:50;5.60;99.90
3156;DHT22;1588;50.892;7.082;2023-02-12T03:44:58;5.70;99.90
3156;DHT22;1588;50.892;7.082;2023-02-12T03:50:09;5.60;99.90
3156;DHT22;1588;50.892;7.082;2023-02-12T03:55:16;5.60;99.90
3156;DHT22;1588;50.892;7.082;2023-02-12T04:00:20;5.60;99.90
3156;DHT22;1588;50.892;7.082;2023-02-12T04:05:26;5.60;99.90
3156;DHT22;1588;50.892;7.082;2023-02-12T04:10:31;5.60;99.90
3156;DHT22;1588;50.892;7.082;2023-02-12T04:15:45;5.60;99.90
3156;DHT22;1588;50.892;7.082;2023-02-12T04:20:59;5.60;99.90
3156;DHT22;1588;50.892;7.082;2023-02-12T04:26:10;5.60;99.90
3156;DHT22;1588;50.892;7.082;2023-02-12T04:31:21;5.60;99.90
3156;DHT22;1588;50.892;7.082;2023-02-12T04:36:29;5.60;99.90
3156;DHT22;1588;50.892;7.082;2023-02-12T04:41:33;5.60;99.90
3156;DHT22;1588;50.892;7.082;2023-02-12T04:46:35;5.50;99.90
3156;DHT22;1588;50.892;7.082;2023-02-12T04:51:39;5.50;99.90
3156;DHT22;1588;50.892;7.082;2023-02-12T04:56:41;5.50;99.90
3156;DHT22;1588;50.892;7.082;2023-02-12T05:01:44;5.50;99.90
3156;DHT22;1588;50.892;7.082;2023-02-12T05:06:48;5.50;99.90
3156;DHT22;1588;50.892;7.082;2023-02-12T05:11:50;5.50;99.90
3156;DHT22;1588;50.892;7.082;2023-02-12T05:16:53;5.50;99.90
3156;DHT22;1588;50.892;7.082;2023-02-12T05:21:56;5.50;99.90
3156;DHT22;1588;50.892;7.082;2023-02-12T05:26:59;5.50;99.90
3156;DHT22;1588;50.892;7.082;2023-02-12T05:32:01;5.50;99.90
3156;DHT22;1588;50.892;7.082;2023-02-12T05:37:05;5.50;99.90
3156;DHT22;1588;50.892;7.082;2023-02-12T05:42:17;5.50;99.90
3156;DHT22;1588;50.892;7.082;2023-02-12T05:47:19;5.50;99.90
3156;DHT22;1588;50.892;7.082;2023-02-12T05:52:23;5.50;99.90
3156;DHT22;1588;50.892;7.082;2023-02-12T05:57:36;5.50;99.90
3156;DHT22;1588;50.892;7.082;2023-02-12T06:02:38;5.50;99.90
3156;DHT22;1588;50.892;7.082;2023-02-12T06:07:49;5.50;99.90
3156;DHT22;1588;50.892;7.082;2023-02-12T06:12:53;5.50;99.90
3156;DHT22;1588;50.892;7.082;2023-02-12T06:17:55;5.50;99.90
3156;DHT22;1588;50.892;7.082;2023-02-12T06:22:59;5.50;99.90
3156;DHT22;1588;50.892;7.082;2023-02-12T06:28:01;5.50;99.90
3156;DHT22;1588;50.892;7.082;2023-02-12T06:33:04;5.50;99.90
3156;DHT22;1588;50.892;7.082;2023-02-12T06:38:08;5.50;99.90
3156;DHT22;1588;50.892;7.082;2023-02-12T06:43:10;5.50;99.90
3156;DHT22;1588;50.892;7.082;2023-02-12T06:48:23;5.50;99.90
3156;DHT22;1588;50.892;7.082;2023-02-12T06:53:27;5.60;99.90
3156;DHT22;1588;50.892;7.082;2023-02-12T06:58:29;5.50;99.90
3156;DHT22;1588;50.892;7.082;2023-02-12T07:03:32;5.50;99.90
3156;DHT22;1588;50.892;7.082;2023-02-12T07:08:36;5.50;99.90
3156;DHT22;1588;50.892;7.082;2023-02-12T07:13:39;5.50;99.90
3156;DHT22;1588;50.892;7.082;2023-02-12T07:18:43;5.50;99.90
3156;DHT22;1588;50.892;7.082;2023-02-12T07:23:48;5.50;99.90
3156;DHT22;1588;50.892;7.082;2023-02-12T07:28:51;5.70;99.90
3156;DHT22;1588;50.892;7.082;2023-02-12T07:33:55;5.70;99.90
3156;DHT22;1588;50.892;7.082;2023-02-12T07:38:59;5.80;99.90
3156;DHT22;1588;50.892;7.082;2023-02-12T07:44:04;5.90;99.90
3156;DHT22;1588;50.892;7.082;2023-02-12T07:49:12;5.90;99.90
3156;DHT22;1588;50.892;7.082;2023-02-12T07:54:17;6.00;99.90
3156;DHT22;1588;50.892;7.082;2023-02-12T07:59:19;6.10;99.90
3156;DHT22;1588;50.892;7.082;2023-02-12T08:04:22;6.20;99.90
3156;DHT22;1588;50.892;7.082;2023-02-12T08:09:37;6.30;99.90
3156;DHT22;1588;50.892;7.082;2023-02-12T08:14:43;6.30;99.90
3156;DHT22;1588;50.892;7.082;2023-02-12T08:19:51;6.50;99.90
3156;DHT22;1588;50.892;7.082;2023-02-12T08:24:55;6.60;99.90
3156;DHT22;1588;50.892;7.082;2023-02-12T08:29:58;6.60;99.90
3156;DHT22;1588;50.892;7.082;2023-02-12T08:35:01;6.80;99.90
3156;DHT22;1588;50.892;7.082;2023-02-12T08:40:06;6.90;99.90
3156;DHT22;1588;50.892;7.082;2023-02-12T08:45:09;7.00;99.90
3156;DHT22;1588;50.892;7.082;2023-02-12T08:50:11;7.10;99.90
3156;DHT22;1588;50.892;7.082;2023-02-12T08:55:15;7.10;99.90
3156;DHT22;1588;50.892;7.082;2023-02-12T09:00:19;7.10;99.90
3156;DHT22;1588;50.892;7.082;2023-02-12T09:05:31;7.20;99.90
3156;DHT22;1588;50.892;7.082;2023-02-12T09:10:38;7.30;99.90
3156;DHT22;1588;50.892;7.082;2023-02-12T09:15:42;7.40;99.90
3156;DHT22;1588;50.892;7.082;2023-02-12T09:20:45;7.60;99.90
3156;DHT22;1588;50.892;7.082;2023-02-12T09:25:49;7.70;99.90
3156;DHT22;1588;50.892;7.082;2023-02-12T09:30:51;7.80;99.90
3156;DHT22;1588;50.892;7.082;2023-02-12T09:35:53;7.90;99.90
3156;DHT22;1588;50.892;7.082;2023-02-12T09:41:21;8.10;99.90
3156;DHT22;1588;50.892;7.082;2023-02-12T09:46:28;8.30;99.90
3156;DHT22;1588;50.892;7.082;2023-02-12T09:51:31;8.30;99.90
3156;DHT22;1588;50.892;7.082;2023-02-12T09:56:37;8.50;99.90
3156;DHT22;1588;50.892;7.082;2023-02-12T10:01:41;8.60;99.90
3156;DHT22;1588;50.892;7.082;2023-02-12T10:06:50;8.60;99.90
3156;DHT22;1588;50.892;7.082;2023-02-12T10:12:00;8.80;99.90
3156;DHT22;1588;50.892;7.082;2023-02-12T10:17:14;8.90;99.90
3156;DHT22;1588;50.892;7.082;2023-02-12T10:22:25;9.00;99.90
3156;DHT22;1588;50.892;7.082;2023-02-12T10:27:39;9.20;99.90
3156;DHT22;1588;50.892;7.082;2023-02-12T10:32:43;9.20;99.90
3156;DHT22;1588;50.892;7.082;2023-02-12T10:37:51;9.30;99.90
3156;DHT22;1588;50.892;7.082;2023-02-12T10:42:57;9.60;99.90
3156;DHT22;1588;50.892;7.082;2023-02-12T10:48:06;9.80;99.90
3156;DHT22;1588;50.892;7.082;2023-02-12T10:53:14;9.80;99.90
3156;DHT22;1588;50.892;7.082;2023-02-12T10:58:21;10.00;99.90
3156;DHT22;1588;50.892;7.082;2023-02-12T11:03:28;9.80;99.90
3156;DHT22;1588;50.892;7.082;2023-02-12T11:08:44;9.90;99.90
3156;DHT22;1588;50.892;7.082;2023-02-12T11:13:54;10.10;99.90
3156;DHT22;1588;50.892;7.082;2023-02-12T11:18:59;10.20;99.90
3156;DHT22;1588;50.892;7.082;2023-02-12T11:24:21;10.10;99.90
3156;DHT22;1588;50.892;7.082;2023-02-12T11:29:31;10.10;99.90
3156;DHT22;1588;50.892;7.082;2023-02-12T11:34:33;10.40;99.90
3156;DHT22;1588;50.892;7.082;2023-02-12T11:39:37;10.60;99.90
3156;DHT22;1588;50.892;7.082;2023-02-12T11:44:47;10.70;99.90
3156;DHT22;1588;50.892;7.082;2023-02-12T11:49:53;10.70;99.90
3156;DHT22;1588;50.892;7.082;2023-02-12T11:54:59;10.90;99.90
3156;DHT22;1588;50.892;7.082;2023-02-12T12:00:05;10.80;99.90
3156;DHT22;1588;50.892;7.082;2023-02-12T12:05:17;10.90;99.90
3156;DHT22;1588;50.892;7.082;2023-02-12T12:10:27;10.80;99.90
3156;DHT22;1588;50.892;7.082;2023-02-12T12:15:38;11.00;99.90
3156;DHT22;1588;50.892;7.082;2023-02-12T12:21:08;11.00;99.90
3156;DHT22;1588;50.892;7.082;2023-02-12T12:26:19;11.00;99.90
3156;DHT22;1588;50.892;7.082;2023-02-12T12:31:38;10.70;99.90
3156;DHT22;1588;50.892;7.082;2023-02-12T12:36:59;10.80;99.90
3156;DHT22;1588;50.892;7.082;2023-02-12T12:48:06;11.20;99.90
3156;DHT22;1588;50.892;7.082;2023-02-12T12:53:26;11.20;99.90
3156;DHT22;1588;50.892;7.082;2023-02-12T12:58:49;11.40;99.90
3156;DHT22;1588;50.892;7.082;2023-02-12T13:09:57;11.40;99.90
3156;DHT22;1588;50.892;7.082;2023-02-12T13:15:12;11.30;99.90
3156;DHT22;1588;50.892;7.082;2023-02-12T13:20:36;11.50;99.90
3156;DHT22;1588;50.892;7.082;2023-02-12T13:25:48;11.60;99.90
3156;DHT22;1588;50.892;7.082;2023-02-12T13:30:55;11.60;99.90
3156;DHT22;1588;50.892;7.082;2023-02-12T13:36:01;11.50;99.90
3156;DHT22;1588;50.892;7.082;2023-02-12T13:41:08;11.50;99.90
3156;DHT22;1588;50.892;7.082;2023-02-12T13:46:24;11.40;99.90
3156;DHT22;1588;50.892;7.082;2023-02-12T13:51:39;11.60;99.90
3156;DHT22;1588;50.892;7.082;2023-02-12T13:56:44;11.40;99.90
3156;DHT22;1588;50.892;7.082;2023-02-12T14:01:50;11.30;99.90
3156;DHT22;1588;50.892;7.082;2023-02-12T14:06:57;11.30;99.90
3156;DHT22;1588;50.892;7.082;2023-02-12T14:12:01;11.30;99.90
3156;DHT22;1588;50.892;7.082;2023-02-12T14:17:48;11.20;99.90
3156;DHT22;1588;50.892;7.082;2023-02-12T14:28:23;11.20;99.90
3156;DHT22;1588;50.892;7.082;2023-02-12T14:33:29;11.10;99.90
3156;DHT22;1588;50.892;7.082;2023-02-12T14:38:57;11.00;99.90
3156;DHT22;1588;50.892;7.082;2023-02-12T14:49:45;10.90;99.90
3156;DHT22;1588;50.892;7.082;2023-02-12T14:54:53;10.90;99.90
3156;DHT22;1588;50.892;7.082;2023-02-12T14:59:58;10.90;99.90
3156;DHT22;1588;50.892;7.082;2023-02-12T15:05:06;10.80;99.90
3156;DHT22;1588;50.892;7.082;2023-02-12T15:10:25;10.70;99.90
3156;DHT22;1588;50.892;7.082;2023-02-12T15:15:32;10.70;99.90
3156;DHT22;1588;50.892;7.082;2023-02-12T15:20:43;10.70;99.90
3156;DHT22;1588;50.892;7.082;2023-02-12T15:25:49;10.70;99.90
3156;DHT22;1588;50.892;7.082;2023-02-12T15:30:53;10.70;99.90
3156;DHT22;1588;50.892;7.082;2023-02-12T15:35:57;10.70;99.90
3156;DHT22;1588;50.892;7.082;2023-02-12T15:41:03;10.70;99.90
3156;DHT22;1588;50.892;7.082;2023-02-12T15:46:15;10.60;99.90
3156;DHT22;1588;50.892;7.082;2023-02-12T15:51:25;10.60;99.90
3156;DHT22;1588;50.892;7.082;2023-02-12T15:56:30;10.50;99.90
3156;DHT22;1588;50.892;7.082;2023-02-12T16:01:34;10.40;99.90
3156;DHT22;1588;50.892;7.082;2023-02-12T16:06:38;10.40;99.90
3156;DHT22;1588;50.892;7.082;2023-02-12T16:11:44;10.30;99.90
3156;DHT22;1588;50.892;7.082;2023-02-12T16:16:49;10.30;99.90
3156;DHT22;1588;50.892;7.082;2023-02-12T16:21:56;10.20;99.90
3156;DHT22;1588;50.892;7.082;2023-02-12T16:27:15;10.10;99.90
3156;DHT22;1588;50.892;7.082;2023-02-12T16:32:32;10.10;99.90
3156;DHT22;1588;50.892;7.082;2023-02-12T16:37:44;10.00;99.90
3156;DHT22;1588;50.892;7.082;2023-02-12T16:43:00;9.90;99.90
3156;DHT22;1588;50.892;7.082;2023-02-12T16:48:12;9.90;99.90
3156;DHT22;1588;50.892;7.082;2023-02-12T16:53:32;9.90;99.90
3156;DHT22;1588;50.892;7.082;2023-02-12T16:58:39;9.80;99.90
3156;DHT22;1588;50.892;7.082;2023-02-12T17:03:42;9.70;99.90
3156;DHT22;1588;50.892;7.082;2023-02-12T17:08:48;9.60;99.90
3156;DHT22;1588;50.892;7.082;2023-02-12T17:13:52;9.60;99.90
3156;DHT22;1588;50.892;7.082;2023-02-12T17:18:57;9.50;99.90
3156;DHT22;1588;50.892;7.082;2023-02-12T17:23:59;9.40;99.90
3156;DHT22;1588;50.892;7.082;2023-02-12T17:29:03;9.30;99.90
3156;DHT22;1588;50.892;7.082;2023-02-12T17:34:06;9.30;99.90
3156;DHT22;1588;50.892;7.082;2023-02-12T17:39:13;9.20;99.90
3156;DHT22;1588;50.892;7.082;2023-02-12T17:44:17;9.20;99.90
3156;DHT22;1588;50.892;7.082;2023-02-12T17:49:21;9.20;99.90
3156;DHT22;1588;50.892;7.082;2023-02-12T17:54:23;9.20;99.90
3156;DHT22;1588;50.892;7.082;2023-02-12T17:59:27;9.10;99.90
3156;DHT22;1588;50.892;7.082;2023-02-12T18:04:30;9.10;99.90
3156;DHT22;1588;50.892;7.082;2023-02-12T18:09:35;9.00;99.90
3156;DHT22;1588;50.892;7.082;2023-02-12T18:14:39;9.00;99.90
3156;DHT22;1588;50.892;7.082;2023-02-12T18:19:42;9.00;99.90
3156;DHT22;1588;50.892;7.082;2023-02-12T18:24:44;9.00;99.90
3156;DHT22;1588;50.892;7.082;2023-02-12T18:29:48;8.90;99.90
3156;DHT22;1588;50.892;7.082;2023-02-12T18:34:51;8.90;99.90
3156;DHT22;1588;50.892;7.082;2023-02-12T18:39:55;8.90;99.90
3156;DHT22;1588;50.892;7.082;2023-02-12T18:44:58;8.80;99.90
3156;DHT22;1588;50.892;7.082;2023-02-12T18:50:03;8.80;99.90
3156;DHT22;1588;50.892;7.082;2023-02-12T18:55:07;8.80;99.90
3156;DHT22;1588;50.892;7.082;2023-02-12T19:00:14;8.80;99.90
3156;DHT22;1588;50.892;7.082;2023-02-12T19:05:17;9.00;99.90
3156;DHT22;1588;50.892;7.082;2023-02-12T19:10:19;9.00;99.90
3156;DHT22;1588;50.892;7.082;2023-02-12T19:15:26;9.00;99.90
3156;DHT22;1588;50.892;7.082;2023-02-12T19:20:32;9.00;99.90
3156;DHT22;1588;50.892;7.082;2023-02-12T19:25:35;9.00;99.90
3156;DHT22;1588;50.892;7.082;2023-02-12T19:30:44;9.00;99.90
3156;DHT22;1588;50.892;7.082;2023-02-12T19:35:48;9.00;99.90
3156;DHT22;1588;50.892;7.082;2023-02-12T19:40:50;9.00;99.90
3156;DHT22;1588;50.892;7.082;2023-02-12T19:46:01;9.00;99.90
3156;DHT22;1588;50.892;7.082;2023-02-12T19:51:10;9.10;99.90
3156;DHT22;1588;50.892;7.082;2023-02-12T19:56:14;9.00;99.90
3156;DHT22;1588;50.892;7.082;2023-02-12T20:01:22;9.00;99.90
3156;DHT22;1588;50.892;7.082;2023-02-12T20:06:27;9.00;99.90
3156;DHT22;1588;50.892;7.082;2023-02-12T20:11:31;9.00;99.90
3156;DHT22;1588;50.892;7.082;2023-02-12T20:16:36;8.90;99.90
3156;DHT22;1588;50.892;7.082;2023-02-12T20:21:41;8.90;99.90
3156;DHT22;1588;50.892;7.082;2023-02-12T20:26:44;8.90;99.90
3156;DHT22;1588;50.892;7.082;2023-02-12T21:01:50;8.90;99.90
3156;DHT22;1588;50.892;7.082;2023-02-12T21:24:52;8.80;99.90
3156;DHT22;1588;50.892;7.082;2023-02-12T21:29:57;8.80;99.90
3156;DHT22;1588;50.892;7.082;2023-02-12T21:35:00;8.70;99.90
3156;DHT22;1588;50.892;7.082;2023-02-12T21:40:12;8.80;99.90
3156;DHT22;1588;50.892;7.082;2023-02-12T21:45:15;8.80;99.90
3156;DHT22;1588;50.892;7.082;2023-02-12T21:50:20;8.80;99.90
3156;DHT22;1588;50.892;7.082;2023-02-12T21:55:25;8.80;99.90
3156;DHT22;1588;50.892;7.082;2023-02-12T22:00:27;8.80;99.90
3156;DHT22;1588;50.892;7.082;2023-02-12T22:05:38;8.80;99.90
3156;DHT22;1588;50.892;7.082;2023-02-12T22:10:42;8.70;99.90
3156;DHT22;1588;50.892;7.082;2023-02-12T22:15:45;8.80;99.90
3156;DHT22;1588;50.892;7.082;2023-02-12T22:20:48;8.90;99.90
3156;DHT22;1588;50.892;7.082;2023-02-12T22:25:52;8.80;99.90
3156;DHT22;1588;50.892;7.082;2023-02-12T22:30:54;8.80;99.90
3156;DHT22;1588;50.892;7.082;2023-02-12T22:36:00;8.80;99.90
3156;DHT22;1588;50.892;7.082;2023-02-12T22:41:08;8.80;99.90
3156;DHT22;1588;50.892;7.082;2023-02-12T22:46:13;8.90;99.90
3156;DHT22;1588;50.892;7.082;2023-02-12T22:51:19;8.80;99.90
3156;DHT22;1588;50.892;7.082;2023-02-12T22:56:24;8.70;99.90
3156;DHT22;1588;50.892;7.082;2023-02-12T23:01:29;8.80;99.90
3156;DHT22;1588;50.892;7.082;2023-02-12T23:06:32;8.80;99.90
3156;DHT22;1588;50.892;7.082;2023-02-12T23:11:36;8.70;99.90
3156;DHT22;1588;50.892;7.082;2023-02-12T23:16:39;8.80;99.90
3156;DHT22;1588;50.892;7.082;2023-02-12T23:21:46;8.80;99.90
3156;DHT22;1588;50.892;7.082;2023-02-12T23:26:54;8.80;99.90
3156;DHT22;1588;50.892;7.082;2023-02-12T23:31:56;8.80;99.90
3156;DHT22;1588;50.892;7.082;2023-02-12T23:36:59;8.80;99.90
3156;DHT22;1588;50.892;7.082;2023-02-12T23:42:03;8.70;99.90
3156;DHT22;1588;50.892;7.082;2023-02-12T23:47:05;8.80;99.90
3156;DHT22;1588;50.892;7.082;2023-02-12T23:52:08;8.80;99.90
3156;DHT22;1588;50.892;7.082;2023-02-12T23:57:22;8.90;99.90
